sensor_id;sensor_type;location;lat;lon;timestamp;temperature;humidity
27795;DHT22;15176;50.844;4.412;2022-12-29T00:01:40;12.30;99.90
27795;DHT22;15176;50.844;4.412;2022-12-29T00:04:06;12.30;99.90
27795;DHT22;15176;50.844;4.412;2022-12-29T00:06:32;12.30;99.90
27795;DHT22;15176;50.844;4.412;2022-12-29T00:08:58;12.50;99.90
27795;DHT22;15176;50.844;4.412;2022-12-29T00:11:27;12.50;99.90
27795;DHT22;15176;50.844;4.412;2022-12-29T00:13:53;12.50;99.90
27795;DHT22;15176;50.844;4.412;2022-12-29T00:16:41;12.50;99.90
27795;DHT22;15176;50.844;4.412;2022-12-29T00:19:07;12.60;99.90
27795;DHT22;15176;50.844;4.412;2022-12-29T00:21:52;12.40;99.90
27795;DHT22;15176;50.844;4.412;2022-12-29T00:24:37;12.40;99.90
27795;DHT22;15176;50.844;4.412;2022-12-29T00:27:21;12.40;99.90
27795;DHT22;15176;50.844;4.412;2022-12-29T00:30:11;12.50;99.90
27795;DHT22;15176;50.844;4.412;2022-12-29T00:32:55;12.50;99.90
27795;DHT22;15176;50.844;4.412;2022-12-29T00:35:53;12.50;99.90
27795;DHT22;15176;50.844;4.412;2022-12-29T00:38:22;12.50;99.90
27795;DHT22;15176;50.844;4.412;2022-12-29T00:41:06;12.60;99.90
27795;DHT22;15176;50.844;4.412;2022-12-29T00:43:50;12.70;99.90
27795;DHT22;15176;50.844;4.412;2022-12-29T00:46:39;12.60;99.90
27795;DHT22;15176;50.844;4.412;2022-12-29T00:49:07;12.70;99.90
27795;DHT22;15176;50.844;4.412;2022-12-29T00:51:52;12.80;99.90
27795;DHT22;15176;50.844;4.412;2022-12-29T00:54:18;12.80;99.90
27795;DHT22;15176;50.844;4.412;2022-12-29T00:56:49;12.90;99.90
27795;DHT22;15176;50.844;4.412;2022-12-29T00:59:15;12.80;99.90
27795;DHT22;15176;50.844;4.412;2022-12-29T01:01:41;12.60;99.90
27795;DHT22;15176;50.844;4.412;2022-12-29T01:04:08;12.60;99.90
27795;DHT22;15176;50.844;4.412;2022-12-29T01:06:35;12.80;99.90
27795;DHT22;15176;50.844;4.412;2022-12-29T01:09:01;12.80;99.90
27795;DHT22;15176;50.844;4.412;2022-12-29T01:11:46;12.90;99.90
27795;DHT22;15176;50.844;4.412;2022-12-29T01:14:11;13.00;99.90
27795;DHT22;15176;50.844;4.412;2022-12-29T01:16:37;12.70;99.90
27795;DHT22;15176;50.844;4.412;2022-12-29T01:19:03;12.60;99.90
27795;DHT22;15176;50.844;4.412;2022-12-29T01:21:29;12.50;99.90
27795;DHT22;15176;50.844;4.412;2022-12-29T01:23:55;12.70;99.90
27795;DHT22;15176;50.844;4.412;2022-12-29T01:26:21;12.40;99.90
27795;DHT22;15176;50.844;4.412;2022-12-29T01:28:46;12.50;99.90
27795;DHT22;15176;50.844;4.412;2022-12-29T01:31:13;12.50;99.90
27795;DHT22;15176;50.844;4.412;2022-12-29T01:33:40;12.20;99.90
27795;DHT22;15176;50.844;4.412;2022-12-29T01:36:09;12.30;99.90
27795;DHT22;15176;50.844;4.412;2022-12-29T01:38:36;12.30;99.90
27795;DHT22;15176;50.844;4.412;2022-12-29T01:41:03;12.30;99.90
27795;DHT22;15176;50.844;4.412;2022-12-29T01:43:51;12.20;99.90
27795;DHT22;15176;50.844;4.412;2022-12-29T01:46:50;12.10;99.90
27795;DHT22;15176;50.844;4.412;2022-12-29T01:49:24;12.00;99.90
27795;DHT22;15176;50.844;4.412;2022-12-29T01:52:02;12.20;99.90
27795;DHT22;15176;50.844;4.412;2022-12-29T01:56:59;12.10;99.90
27795;DHT22;15176;50.844;4.412;2022-12-29T01:59:29;11.90;99.90
27795;DHT22;15176;50.844;4.412;2022-12-29T02:01:56;12.00;99.90
27795;DHT22;15176;50.844;4.412;2022-12-29T02:04:24;12.10;99.90
27795;DHT22;15176;50.844;4.412;2022-12-29T02:07:03;12.10;99.90
27795;DHT22;15176;50.844;4.412;2022-12-29T02:09:30;12.00;99.90
27795;DHT22;15176;50.844;4.412;2022-12-29T02:11:57;11.90;99.90
27795;DHT22;15176;50.844;4.412;2022-12-29T02:14:23;11.90;99.90
27795;DHT22;15176;50.844;4.412;2022-12-29T02:35:01;11.20;99.90
27795;DHT22;15176;50.844;4.412;2022-12-29T02:37:50;11.20;99.90
27795;DHT22;15176;50.844;4.412;2022-12-29T02:45:41;11.10;99.90
27795;DHT22;15176;50.844;4.412;2022-12-29T02:53:50;11.10;99.90
27795;DHT22;15176;50.844;4.412;2022-12-29T02:56:35;11.10;99.90
27795;DHT22;15176;50.844;4.412;2022-12-29T02:59:01;11.10;99.90
27795;DHT22;15176;50.844;4.412;2022-12-29T03:01:37;11.10;99.90
27795;DHT22;15176;50.844;4.412;2022-12-29T03:04:36;11.10;99.90
27795;DHT22;15176;50.844;4.412;2022-12-29T03:09:43;10.90;99.90
27795;DHT22;15176;50.844;4.412;2022-12-29T03:13:16;10.90;99.90
27795;DHT22;15176;50.844;4.412;2022-12-29T03:15:39;10.80;99.90
27795;DHT22;15176;50.844;4.412;2022-12-29T03:18:45;10.50;99.90
27795;DHT22;15176;50.844;4.412;2022-12-29T03:24:40;10.40;99.90
27795;DHT22;15176;50.844;4.412;2022-12-29T03:27:09;10.70;99.90
27795;DHT22;15176;50.844;4.412;2022-12-29T03:29:39;10.80;99.90
27795;DHT22;15176;50.844;4.412;2022-12-29T03:32:09;10.80;99.90
27795;DHT22;15176;50.844;4.412;2022-12-29T03:34:37;10.80;99.90
27795;DHT22;15176;50.844;4.412;2022-12-29T03:37:15;10.90;99.90
27795;DHT22;15176;50.844;4.412;2022-12-29T03:39:42;10.90;99.90
27795;DHT22;15176;50.844;4.412;2022-12-29T03:42:19;10.90;99.90
27795;DHT22;15176;50.844;4.412;2022-12-29T03:44:46;11.00;99.90
27795;DHT22;15176;50.844;4.412;2022-12-29T03:47:13;11.00;99.90
27795;DHT22;15176;50.844;4.412;2022-12-29T03:49:39;11.10;99.90
27795;DHT22;15176;50.844;4.412;2022-12-29T03:52:05;11.20;99.90
27795;DHT22;15176;50.844;4.412;2022-12-29T03:54:32;11.20;99.90
27795;DHT22;15176;50.844;4.412;2022-12-29T03:56:58;11.10;99.90
27795;DHT22;15176;50.844;4.412;2022-12-29T03:59:24;11.00;99.90
27795;DHT22;15176;50.844;4.412;2022-12-29T04:01:49;11.00;99.90
27795;DHT22;15176;50.844;4.412;2022-12-29T04:04:16;11.00;99.90
27795;DHT22;15176;50.844;4.412;2022-12-29T04:06:41;11.10;99.90
27795;DHT22;15176;50.844;4.412;2022-12-29T04:09:07;11.10;99.90
27795;DHT22;15176;50.844;4.412;2022-12-29T04:11:33;11.10;99.90
27795;DHT22;15176;50.844;4.412;2022-12-29T04:13:58;11.00;99.90
27795;DHT22;15176;50.844;4.412;2022-12-29T04:16:24;11.00;99.90
27795;DHT22;15176;50.844;4.412;2022-12-29T04:18:50;11.00;99.90
27795;DHT22;15176;50.844;4.412;2022-12-29T04:21:15;11.00;99.90
27795;DHT22;15176;50.844;4.412;2022-12-29T04:23:42;11.00;99.90
27795;DHT22;15176;50.844;4.412;2022-12-29T04:26:09;11.00;99.90
27795;DHT22;15176;50.844;4.412;2022-12-29T04:28:35;11.00;99.90
27795;DHT22;15176;50.844;4.412;2022-12-29T04:31:02;11.20;99.90
27795;DHT22;15176;50.844;4.412;2022-12-29T04:33:28;11.20;99.90
27795;DHT22;15176;50.844;4.412;2022-12-29T04:35:54;11.30;99.90
27795;DHT22;15176;50.844;4.412;2022-12-29T04:38:21;11.20;99.90
27795;DHT22;15176;50.844;4.412;2022-12-29T04:40:47;11.20;99.90
27795;DHT22;15176;50.844;4.412;2022-12-29T04:43:13;11.40;99.90
27795;DHT22;15176;50.844;4.412;2022-12-29T04:45:48;11.30;99.90
27795;DHT22;15176;50.844;4.412;2022-12-29T04:48:14;11.10;99.90
27795;DHT22;15176;50.844;4.412;2022-12-29T04:50:40;11.30;99.90
27795;DHT22;15176;50.844;4.412;2022-12-29T04:53:06;11.40;99.90
27795;DHT22;15176;50.844;4.412;2022-12-29T04:55:33;11.60;99.90
27795;DHT22;15176;50.844;4.412;2022-12-29T04:57:59;11.50;99.90
27795;DHT22;15176;50.844;4.412;2022-12-29T05:00:25;11.40;99.90
27795;DHT22;15176;50.844;4.412;2022-12-29T05:02:51;11.40;99.90
27795;DHT22;15176;50.844;4.412;2022-12-29T05:05:17;11.30;99.90
27795;DHT22;15176;50.844;4.412;2022-12-29T05:07:43;11.40;99.90
27795;DHT22;15176;50.844;4.412;2022-12-29T05:10:10;11.40;99.90
27795;DHT22;15176;50.844;4.412;2022-12-29T05:12:37;11.40;99.90
27795;DHT22;15176;50.844;4.412;2022-12-29T05:15:04;11.60;99.90
27795;DHT22;15176;50.844;4.412;2022-12-29T05:17:30;11.60;99.90
27795;DHT22;15176;50.844;4.412;2022-12-29T05:19:57;11.50;99.90
27795;DHT22;15176;50.844;4.412;2022-12-29T05:22:23;11.40;99.90
27795;DHT22;15176;50.844;4.412;2022-12-29T05:24:49;11.30;99.90
27795;DHT22;15176;50.844;4.412;2022-12-29T05:27:14;11.50;99.90
27795;DHT22;15176;50.844;4.412;2022-12-29T05:29:40;11.60;99.90
27795;DHT22;15176;50.844;4.412;2022-12-29T05:32:06;11.60;99.90
27795;DHT22;15176;50.844;4.412;2022-12-29T05:34:32;11.70;99.90
27795;DHT22;15176;50.844;4.412;2022-12-29T05:36:57;11.70;99.90
27795;DHT22;15176;50.844;4.412;2022-12-29T05:39:23;11.70;99.90
27795;DHT22;15176;50.844;4.412;2022-12-29T05:41:49;11.80;99.90
27795;DHT22;15176;50.844;4.412;2022-12-29T05:44:15;11.80;99.90
27795;DHT22;15176;50.844;4.412;2022-12-29T05:46:40;11.70;99.90
27795;DHT22;15176;50.844;4.412;2022-12-29T05:49:06;11.60;99.90
27795;DHT22;15176;50.844;4.412;2022-12-29T05:51:32;11.60;99.90
27795;DHT22;15176;50.844;4.412;2022-12-29T05:53:58;11.60;99.90
27795;DHT22;15176;50.844;4.412;2022-12-29T05:56:23;11.50;99.90
27795;DHT22;15176;50.844;4.412;2022-12-29T05:58:49;11.50;99.90
27795;DHT22;15176;50.844;4.412;2022-12-29T06:01:15;11.60;99.90
27795;DHT22;15176;50.844;4.412;2022-12-29T06:03:41;11.70;99.90
27795;DHT22;15176;50.844;4.412;2022-12-29T06:06:06;11.60;99.90
27795;DHT22;15176;50.844;4.412;2022-12-29T06:08:32;11.50;99.90
27795;DHT22;15176;50.844;4.412;2022-12-29T06:10:58;11.50;99.90
27795;DHT22;15176;50.844;4.412;2022-12-29T06:13:23;11.50;99.90
27795;DHT22;15176;50.844;4.412;2022-12-29T06:15:49;11.70;99.90
27795;DHT22;15176;50.844;4.412;2022-12-29T06:18:15;11.60;99.90
27795;DHT22;15176;50.844;4.412;2022-12-29T06:20:41;11.40;99.90
27795;DHT22;15176;50.844;4.412;2022-12-29T06:23:07;11.50;99.90
27795;DHT22;15176;50.844;4.412;2022-12-29T06:25:33;11.40;99.90
27795;DHT22;15176;50.844;4.412;2022-12-29T06:28:01;11.30;99.90
27795;DHT22;15176;50.844;4.412;2022-12-29T06:30:27;11.30;99.90
27795;DHT22;15176;50.844;4.412;2022-12-29T06:32:53;11.40;99.90
27795;DHT22;15176;50.844;4.412;2022-12-29T06:35:20;11.30;99.90
27795;DHT22;15176;50.844;4.412;2022-12-29T06:37:46;11.30;99.90
27795;DHT22;15176;50.844;4.412;2022-12-29T06:40:12;11.20;99.90
27795;DHT22;15176;50.844;4.412;2022-12-29T06:42:38;11.30;99.90
27795;DHT22;15176;50.844;4.412;2022-12-29T06:45:04;11.50;99.90
27795;DHT22;15176;50.844;4.412;2022-12-29T06:47:30;11.50;99.90
27795;DHT22;15176;50.844;4.412;2022-12-29T06:49:56;11.50;99.90
27795;DHT22;15176;50.844;4.412;2022-12-29T06:52:22;11.50;99.90
27795;DHT22;15176;50.844;4.412;2022-12-29T06:54:50;11.40;99.90
27795;DHT22;15176;50.844;4.412;2022-12-29T06:57:16;11.40;99.90
27795;DHT22;15176;50.844;4.412;2022-12-29T06:59:42;11.40;99.90
27795;DHT22;15176;50.844;4.412;2022-12-29T07:02:10;11.40;99.90
27795;DHT22;15176;50.844;4.412;2022-12-29T07:04:36;11.30;99.90
27795;DHT22;15176;50.844;4.412;2022-12-29T07:07:03;11.30;99.90
27795;DHT22;15176;50.844;4.412;2022-12-29T07:09:28;11.50;99.90
27795;DHT22;15176;50.844;4.412;2022-12-29T07:11:54;11.40;99.90
27795;DHT22;15176;50.844;4.412;2022-12-29T07:14:20;11.40;99.90
27795;DHT22;15176;50.844;4.412;2022-12-29T07:16:46;11.50;99.90
27795;DHT22;15176;50.844;4.412;2022-12-29T07:19:11;11.40;99.90
27795;DHT22;15176;50.844;4.412;2022-12-29T07:21:37;11.40;99.90
27795;DHT22;15176;50.844;4.412;2022-12-29T07:24:03;11.30;99.90
27795;DHT22;15176;50.844;4.412;2022-12-29T07:26:29;11.20;99.90
27795;DHT22;15176;50.844;4.412;2022-12-29T07:28:54;11.30;99.90
27795;DHT22;15176;50.844;4.412;2022-12-29T07:31:23;11.40;99.90
27795;DHT22;15176;50.844;4.412;2022-12-29T07:33:49;11.60;99.90
27795;DHT22;15176;50.844;4.412;2022-12-29T07:36:15;11.50;99.90
27795;DHT22;15176;50.844;4.412;2022-12-29T07:38:42;11.40;99.90
27795;DHT22;15176;50.844;4.412;2022-12-29T07:41:08;11.30;99.90
27795;DHT22;15176;50.844;4.412;2022-12-29T07:43:34;11.30;99.90
27795;DHT22;15176;50.844;4.412;2022-12-29T07:46:00;11.40;99.90
27795;DHT22;15176;50.844;4.412;2022-12-29T07:48:26;11.40;99.90
27795;DHT22;15176;50.844;4.412;2022-12-29T07:50:52;11.50;99.90
27795;DHT22;15176;50.844;4.412;2022-12-29T07:53:18;11.60;99.90
27795;DHT22;15176;50.844;4.412;2022-12-29T07:55:44;11.40;99.90
27795;DHT22;15176;50.844;4.412;2022-12-29T07:58:10;11.40;99.90
27795;DHT22;15176;50.844;4.412;2022-12-29T08:00:39;11.50;99.90
27795;DHT22;15176;50.844;4.412;2022-12-29T08:03:05;11.50;99.90
27795;DHT22;15176;50.844;4.412;2022-12-29T08:05:32;11.40;99.90
27795;DHT22;15176;50.844;4.412;2022-12-29T08:07:58;11.40;99.90
27795;DHT22;15176;50.844;4.412;2022-12-29T08:10:24;11.40;99.90
27795;DHT22;15176;50.844;4.412;2022-12-29T08:12:50;11.40;99.90
27795;DHT22;15176;50.844;4.412;2022-12-29T08:15:16;11.60;99.90
27795;DHT22;15176;50.844;4.412;2022-12-29T08:17:41;11.50;99.90
27795;DHT22;15176;50.844;4.412;2022-12-29T08:20:08;11.60;99.90
27795;DHT22;15176;50.844;4.412;2022-12-29T08:22:34;11.60;99.90
27795;DHT22;15176;50.844;4.412;2022-12-29T08:25:00;11.40;99.90
27795;DHT22;15176;50.844;4.412;2022-12-29T08:27:26;11.50;99.90
27795;DHT22;15176;50.844;4.412;2022-12-29T08:29:51;11.40;99.90
27795;DHT22;15176;50.844;4.412;2022-12-29T08:32:18;11.30;99.90
27795;DHT22;15176;50.844;4.412;2022-12-29T08:34:44;11.40;99.90
27795;DHT22;15176;50.844;4.412;2022-12-29T08:37:09;11.70;99.90
27795;DHT22;15176;50.844;4.412;2022-12-29T08:39:35;11.60;99.90
27795;DHT22;15176;50.844;4.412;2022-12-29T08:42:01;11.60;99.90
27795;DHT22;15176;50.844;4.412;2022-12-29T08:44:27;11.60;99.90
27795;DHT22;15176;50.844;4.412;2022-12-29T08:46:52;11.60;99.90
27795;DHT22;15176;50.844;4.412;2022-12-29T08:49:18;11.50;99.90
27795;DHT22;15176;50.844;4.412;2022-12-29T08:51:44;11.60;99.90
27795;DHT22;15176;50.844;4.412;2022-12-29T08:54:09;11.50;99.90
27795;DHT22;15176;50.844;4.412;2022-12-29T08:56:35;11.50;99.90
27795;DHT22;15176;50.844;4.412;2022-12-29T08:59:01;11.60;99.90
27795;DHT22;15176;50.844;4.412;2022-12-29T09:01:27;11.50;99.90
27795;DHT22;15176;50.844;4.412;2022-12-29T09:03:54;11.50;99.90
27795;DHT22;15176;50.844;4.412;2022-12-29T09:06:20;11.30;99.90
27795;DHT22;15176;50.844;4.412;2022-12-29T09:08:46;11.40;99.90
27795;DHT22;15176;50.844;4.412;2022-12-29T09:11:19;11.60;99.90
27795;DHT22;15176;50.844;4.412;2022-12-29T09:13:45;11.40;99.90
27795;DHT22;15176;50.844;4.412;2022-12-29T09:16:14;11.50;99.90
27795;DHT22;15176;50.844;4.412;2022-12-29T09:18:39;11.40;99.90
27795;DHT22;15176;50.844;4.412;2022-12-29T09:21:06;11.30;99.90
27795;DHT22;15176;50.844;4.412;2022-12-29T09:23:33;11.30;99.90
27795;DHT22;15176;50.844;4.412;2022-12-29T09:25:59;11.40;99.90
27795;DHT22;15176;50.844;4.412;2022-12-29T09:28:25;11.40;99.90
27795;DHT22;15176;50.844;4.412;2022-12-29T09:30:52;11.30;99.90
27795;DHT22;15176;50.844;4.412;2022-12-29T09:33:18;11.30;99.90
27795;DHT22;15176;50.844;4.412;2022-12-29T09:35:45;11.30;99.90
27795;DHT22;15176;50.844;4.412;2022-12-29T09:38:15;11.40;99.90
27795;DHT22;15176;50.844;4.412;2022-12-29T09:40:44;11.40;99.90
27795;DHT22;15176;50.844;4.412;2022-12-29T09:43:45;11.50;99.90
27795;DHT22;15176;50.844;4.412;2022-12-29T09:46:36;11.30;99.90
27795;DHT22;15176;50.844;4.412;2022-12-29T09:49:16;11.30;99.90
27795;DHT22;15176;50.844;4.412;2022-12-29T09:51:50;11.30;99.90
27795;DHT22;15176;50.844;4.412;2022-12-29T09:54:35;11.40;99.90
27795;DHT22;15176;50.844;4.412;2022-12-29T09:57:02;11.50;99.90
27795;DHT22;15176;50.844;4.412;2022-12-29T09:59:39;11.60;99.90
27795;DHT22;15176;50.844;4.412;2022-12-29T10:04:42;11.50;99.90
27795;DHT22;15176;50.844;4.412;2022-12-29T10:07:41;11.50;99.90
27795;DHT22;15176;50.844;4.412;2022-12-29T10:16:25;11.80;99.90
27795;DHT22;15176;50.844;4.412;2022-12-29T10:19:17;11.80;99.90
27795;DHT22;15176;50.844;4.412;2022-12-29T10:24:38;11.30;99.90
27795;DHT22;15176;50.844;4.412;2022-12-29T10:27:10;11.30;99.90
27795;DHT22;15176;50.844;4.412;2022-12-29T10:29:40;11.30;99.90
27795;DHT22;15176;50.844;4.412;2022-12-29T10:32:36;11.30;99.90
27795;DHT22;15176;50.844;4.412;2022-12-29T10:35:13;11.40;99.90
27795;DHT22;15176;50.844;4.412;2022-12-29T10:40:31;11.60;99.90
27795;DHT22;15176;50.844;4.412;2022-12-29T10:42:58;11.50;99.90
27795;DHT22;15176;50.844;4.412;2022-12-29T10:45:28;11.50;99.90
27795;DHT22;15176;50.844;4.412;2022-12-29T10:48:09;11.40;99.90
27795;DHT22;15176;50.844;4.412;2022-12-29T10:50:39;11.50;99.90
27795;DHT22;15176;50.844;4.412;2022-12-29T10:53:16;11.60;99.90
27795;DHT22;15176;50.844;4.412;2022-12-29T10:55:44;11.60;99.90
27795;DHT22;15176;50.844;4.412;2022-12-29T10:58:13;11.60;99.90
27795;DHT22;15176;50.844;4.412;2022-12-29T11:00:43;11.60;99.90
27795;DHT22;15176;50.844;4.412;2022-12-29T11:06:00;11.50;99.90
27795;DHT22;15176;50.844;4.412;2022-12-29T11:08:36;11.60;99.90
27795;DHT22;15176;50.844;4.412;2022-12-29T11:11:10;11.70;99.90
27795;DHT22;15176;50.844;4.412;2022-12-29T11:13:51;11.70;99.90
27795;DHT22;15176;50.844;4.412;2022-12-29T11:16:32;11.70;99.90
27795;DHT22;15176;50.844;4.412;2022-12-29T11:19:00;11.80;99.90
27795;DHT22;15176;50.844;4.412;2022-12-29T11:21:37;11.80;99.90
27795;DHT22;15176;50.844;4.412;2022-12-29T11:24:23;11.80;99.90
27795;DHT22;15176;50.844;4.412;2022-12-29T11:26:52;11.80;99.90
27795;DHT22;15176;50.844;4.412;2022-12-29T11:29:28;11.80;99.90
27795;DHT22;15176;50.844;4.412;2022-12-29T11:31:57;12.00;99.90
27795;DHT22;15176;50.844;4.412;2022-12-29T11:34:32;12.20;99.90
27795;DHT22;15176;50.844;4.412;2022-12-29T11:37:04;12.00;99.90
27795;DHT22;15176;50.844;4.412;2022-12-29T11:39:39;11.90;99.90
27795;DHT22;15176;50.844;4.412;2022-12-29T11:42:14;11.90;99.90
27795;DHT22;15176;50.844;4.412;2022-12-29T11:44:44;12.00;99.90
27795;DHT22;15176;50.844;4.412;2022-12-29T11:47:23;11.80;99.90
27795;DHT22;15176;50.844;4.412;2022-12-29T11:49:54;11.70;99.90
27795;DHT22;15176;50.844;4.412;2022-12-29T11:52:23;11.50;99.90
27795;DHT22;15176;50.844;4.412;2022-12-29T11:54:50;11.60;99.90
27795;DHT22;15176;50.844;4.412;2022-12-29T11:57:18;11.50;99.90
27795;DHT22;15176;50.844;4.412;2022-12-29T11:59:53;11.50;99.90
27795;DHT22;15176;50.844;4.412;2022-12-29T12:02:30;11.60;99.90
27795;DHT22;15176;50.844;4.412;2022-12-29T12:05:28;11.30;99.90
27795;DHT22;15176;50.844;4.412;2022-12-29T12:08:09;11.20;99.90
27795;DHT22;15176;50.844;4.412;2022-12-29T12:10:43;11.30;99.90
27795;DHT22;15176;50.844;4.412;2022-12-29T12:13:31;11.40;99.90
27795;DHT22;15176;50.844;4.412;2022-12-29T12:16:17;11.30;99.90
27795;DHT22;15176;50.844;4.412;2022-12-29T12:18:48;11.40;99.90
27795;DHT22;15176;50.844;4.412;2022-12-29T12:26:55;11.40;99.90
27795;DHT22;15176;50.844;4.412;2022-12-29T12:29:40;11.20;99.90
27795;DHT22;15176;50.844;4.412;2022-12-29T12:35:19;11.20;99.90
27795;DHT22;15176;50.844;4.412;2022-12-29T12:38:07;11.20;99.90
27795;DHT22;15176;50.844;4.412;2022-12-29T12:40:42;11.30;99.90
27795;DHT22;15176;50.844;4.412;2022-12-29T12:49:01;11.60;99.90
27795;DHT22;15176;50.844;4.412;2022-12-29T12:51:46;11.70;99.90
27795;DHT22;15176;50.844;4.412;2022-12-29T13:00:08;11.50;99.90
27795;DHT22;15176;50.844;4.412;2022-12-29T13:10:59;11.40;99.90
27795;DHT22;15176;50.844;4.412;2022-12-29T13:13:40;11.30;99.90
27795;DHT22;15176;50.844;4.412;2022-12-29T13:16:37;11.40;99.90
27795;DHT22;15176;50.844;4.412;2022-12-29T13:27:16;11.30;99.90
27795;DHT22;15176;50.844;4.412;2022-12-29T13:32:47;11.20;99.90
27795;DHT22;15176;50.844;4.412;2022-12-29T13:37:51;11.10;99.90
27795;DHT22;15176;50.844;4.412;2022-12-29T13:40:23;11.10;99.90
27795;DHT22;15176;50.844;4.412;2022-12-29T13:42:50;11.10;99.90
27795;DHT22;15176;50.844;4.412;2022-12-29T13:45:20;11.20;99.90
27795;DHT22;15176;50.844;4.412;2022-12-29T13:50:40;11.10;99.90
27795;DHT22;15176;50.844;4.412;2022-12-29T14:01:21;11.40;99.90
27795;DHT22;15176;50.844;4.412;2022-12-29T14:03:59;11.30;99.90
27795;DHT22;15176;50.844;4.412;2022-12-29T14:06:30;11.20;99.90
27795;DHT22;15176;50.844;4.412;2022-12-29T14:09:05;11.30;99.90
27795;DHT22;15176;50.844;4.412;2022-12-29T14:11:36;11.30;99.90
27795;DHT22;15176;50.844;4.412;2022-12-29T14:14:20;11.20;99.90
27795;DHT22;15176;50.844;4.412;2022-12-29T14:16:48;11.30;99.90
27795;DHT22;15176;50.844;4.412;2022-12-29T14:22:04;11.40;99.90
27795;DHT22;15176;50.844;4.412;2022-12-29T14:34:47;11.50;99.90
27795;DHT22;15176;50.844;4.412;2022-12-29T14:42:55;11.70;99.90
27795;DHT22;15176;50.844;4.412;2022-12-29T14:45:30;11.60;99.90
27795;DHT22;15176;50.844;4.412;2022-12-29T14:47:58;11.60;99.90
27795;DHT22;15176;50.844;4.412;2022-12-29T14:50:40;11.30;99.90
27795;DHT22;15176;50.844;4.412;2022-12-29T14:56:13;10.80;99.90
27795;DHT22;15176;50.844;4.412;2022-12-29T14:58:58;10.60;99.90
27795;DHT22;15176;50.844;4.412;2022-12-29T15:01:47;10.40;99.90
27795;DHT22;15176;50.844;4.412;2022-12-29T15:04:23;10.30;99.90
27795;DHT22;15176;50.844;4.412;2022-12-29T15:06:50;10.20;99.90
27795;DHT22;15176;50.844;4.412;2022-12-29T15:11:48;10.10;99.90
27795;DHT22;15176;50.844;4.412;2022-12-29T15:16:56;10.00;99.90
27795;DHT22;15176;50.844;4.412;2022-12-29T15:19:22;9.80;99.90
27795;DHT22;15176;50.844;4.412;2022-12-29T15:21:48;9.70;99.90
27795;DHT22;15176;50.844;4.412;2022-12-29T15:24:15;9.50;99.90
27795;DHT22;15176;50.844;4.412;2022-12-29T15:26:42;9.60;99.90
27795;DHT22;15176;50.844;4.412;2022-12-29T15:32:09;9.80;99.90
27795;DHT22;15176;50.844;4.412;2022-12-29T15:34:35;9.70;99.90
27795;DHT22;15176;50.844;4.412;2022-12-29T15:37:06;9.50;99.90
27795;DHT22;15176;50.844;4.412;2022-12-29T15:39:32;9.40;99.90
27795;DHT22;15176;50.844;4.412;2022-12-29T15:44:54;9.40;99.90
27795;DHT22;15176;50.844;4.412;2022-12-29T15:47:22;9.40;99.90
27795;DHT22;15176;50.844;4.412;2022-12-29T15:50:03;9.50;99.90
27795;DHT22;15176;50.844;4.412;2022-12-29T15:52:31;9.40;99.90
27795;DHT22;15176;50.844;4.412;2022-12-29T15:54:58;9.60;99.90
27795;DHT22;15176;50.844;4.412;2022-12-29T15:57:30;9.60;99.90
27795;DHT22;15176;50.844;4.412;2022-12-29T15:59:57;9.50;99.90
27795;DHT22;15176;50.844;4.412;2022-12-29T16:02:24;9.30;99.90
27795;DHT22;15176;50.844;4.412;2022-12-29T16:04:51;9.30;99.90
27795;DHT22;15176;50.844;4.412;2022-12-29T16:07:34;9.30;99.90
27795;DHT22;15176;50.844;4.412;2022-12-29T16:10:02;9.40;99.90
27795;DHT22;15176;50.844;4.412;2022-12-29T16:12:34;9.40;99.90
27795;DHT22;15176;50.844;4.412;2022-12-29T16:15:06;9.30;99.90
27795;DHT22;15176;50.844;4.412;2022-12-29T16:17:43;9.20;99.90
27795;DHT22;15176;50.844;4.412;2022-12-29T16:22:40;9.20;99.90
27795;DHT22;15176;50.844;4.412;2022-12-29T16:25:30;9.30;99.90
27795;DHT22;15176;50.844;4.412;2022-12-29T16:28:00;9.40;99.90
27795;DHT22;15176;50.844;4.412;2022-12-29T16:30:31;9.40;99.90
27795;DHT22;15176;50.844;4.412;2022-12-29T16:33:04;9.40;99.90
27795;DHT22;15176;50.844;4.412;2022-12-29T16:35:44;9.30;99.90
27795;DHT22;15176;50.844;4.412;2022-12-29T16:38:18;9.50;99.90
27795;DHT22;15176;50.844;4.412;2022-12-29T16:41:02;9.60;99.90
27795;DHT22;15176;50.844;4.412;2022-12-29T16:43:33;9.30;99.90
27795;DHT22;15176;50.844;4.412;2022-12-29T16:50:51;9.80;99.90
27795;DHT22;15176;50.844;4.412;2022-12-29T16:53:25;9.80;99.90
27795;DHT22;15176;50.844;4.412;2022-12-29T16:55:53;9.80;99.90
27795;DHT22;15176;50.844;4.412;2022-12-29T16:58:25;9.60;99.90
27795;DHT22;15176;50.844;4.412;2022-12-29T17:00:55;9.60;99.90
27795;DHT22;15176;50.844;4.412;2022-12-29T17:03:21;9.70;99.90
27795;DHT22;15176;50.844;4.412;2022-12-29T17:05:48;9.70;99.90
27795;DHT22;15176;50.844;4.412;2022-12-29T17:08:19;10.00;99.90
27795;DHT22;15176;50.844;4.412;2022-12-29T17:10:55;10.10;99.90
27795;DHT22;15176;50.844;4.412;2022-12-29T17:13:40;9.70;99.90
27795;DHT22;15176;50.844;4.412;2022-12-29T17:16:09;9.50;99.90
27795;DHT22;15176;50.844;4.412;2022-12-29T17:18:36;9.60;99.90
27795;DHT22;15176;50.844;4.412;2022-12-29T17:21:02;9.60;99.90
27795;DHT22;15176;50.844;4.412;2022-12-29T17:23:30;9.50;99.90
27795;DHT22;15176;50.844;4.412;2022-12-29T17:25:56;9.50;99.90
27795;DHT22;15176;50.844;4.412;2022-12-29T17:28:30;9.60;99.90
27795;DHT22;15176;50.844;4.412;2022-12-29T17:31:00;9.60;99.90
27795;DHT22;15176;50.844;4.412;2022-12-29T17:33:27;9.70;99.90
27795;DHT22;15176;50.844;4.412;2022-12-29T17:35:55;9.80;99.90
27795;DHT22;15176;50.844;4.412;2022-12-29T17:38:25;9.60;99.90
27795;DHT22;15176;50.844;4.412;2022-12-29T17:40:52;9.60;99.90
27795;DHT22;15176;50.844;4.412;2022-12-29T17:43:18;9.60;99.90
27795;DHT22;15176;50.844;4.412;2022-12-29T17:45:48;9.50;99.90
27795;DHT22;15176;50.844;4.412;2022-12-29T17:48:18;9.50;99.90
27795;DHT22;15176;50.844;4.412;2022-12-29T17:50:46;9.50;99.90
27795;DHT22;15176;50.844;4.412;2022-12-29T17:53:19;9.80;99.90
27795;DHT22;15176;50.844;4.412;2022-12-29T17:55:45;9.80;99.90
27795;DHT22;15176;50.844;4.412;2022-12-29T17:58:17;9.90;99.90
27795;DHT22;15176;50.844;4.412;2022-12-29T18:00:43;9.50;99.90
27795;DHT22;15176;50.844;4.412;2022-12-29T18:03:34;9.30;99.90
27795;DHT22;15176;50.844;4.412;2022-12-29T18:06:00;9.30;99.90
27795;DHT22;15176;50.844;4.412;2022-12-29T18:08:26;9.30;99.90
27795;DHT22;15176;50.844;4.412;2022-12-29T18:10:56;9.40;99.90
27795;DHT22;15176;50.844;4.412;2022-12-29T18:13:28;9.40;99.90
27795;DHT22;15176;50.844;4.412;2022-12-29T18:15:54;9.50;99.90
27795;DHT22;15176;50.844;4.412;2022-12-29T18:18:25;9.20;99.90
27795;DHT22;15176;50.844;4.412;2022-12-29T18:20:55;9.20;99.90
27795;DHT22;15176;50.844;4.412;2022-12-29T18:23:25;9.20;99.90